METAR AND TAF INFORMATION
METAR FOR LGSK
ADDS - METARS form results

(0205 UTC 21 March 2019)
Data provider http://aviationweather.gov/metar/data/
 
Forecast for: LGSK (SKIATHOS ISLAND , GR)
Text: TAF LGSK 202300Z 2100/2109 04016G26KT 9999 SCT020
Forecast period: 0000 to 0900 UTC 21 March 2019
Forecast type: FROM: standard forecast or significant change
Winds: from the NE (40 degrees) at 18 MPH (16 knots; 8.2 m/s)
gusting to 30 MPH (26 knots; 13.4 m/s)
Visibility: 6 or more miles 10+ km)
Ceiling: at least 12,000 feet AGL
Clouds: scattered clouds at 2000 feet AGL
Weather: no significant weather forecast for this period

 AIRPORT MAP

 RUNWAY INFORMATION

 AIRPORT FREQUENCIES
Type A/G Name SKIATHOS R Frequency 563.7 MHZ
Type APP Name SKIATHOS A Frequency 126.05 MHZ
Type TWR Name SKIATHOS T Frequency 126.05 MHZ

 AIRPORT NEAR NAVIGATION AIDS
Type NDB Name Skiathos Frequency 326 KHZ



Powered by Virtual Airlines Manager [v2.6.2]